sensor_id;sensor_type;location;lat;lon;timestamp;P1;durP1;ratioP1;P2;durP2;ratioP2
52608;SDS011;38503;48.544;12.142;2022-12-07T00:01:30;9.67;;;8.37;;
52608;SDS011;38503;48.544;12.142;2022-12-07T00:03:59;11.50;;;9.60;;
52608;SDS011;38503;48.544;12.142;2022-12-07T00:06:35;9.27;;;8.17;;
52608;SDS011;38503;48.544;12.142;2022-12-07T00:09:04;9.73;;;8.60;;
52608;SDS011;38503;48.544;12.142;2022-12-07T00:11:33;11.60;;;9.67;;
52608;SDS011;38503;48.544;12.142;2022-12-07T00:14:01;9.53;;;8.53;;
52608;SDS011;38503;48.544;12.142;2022-12-07T00:16:30;9.17;;;8.17;;
52608;SDS011;38503;48.544;12.142;2022-12-07T00:18:59;8.90;;;7.50;;
52608;SDS011;38503;48.544;12.142;2022-12-07T00:21:30;10.20;;;7.77;;
52608;SDS011;38503;48.544;12.142;2022-12-07T00:23:58;10.80;;;8.00;;
52608;SDS011;38503;48.544;12.142;2022-12-07T00:26:27;11.13;;;7.77;;
52608;SDS011;38503;48.544;12.142;2022-12-07T00:28:57;10.03;;;8.53;;
52608;SDS011;38503;48.544;12.142;2022-12-07T00:31:30;10.77;;;8.23;;
52608;SDS011;38503;48.544;12.142;2022-12-07T00:34:00;11.73;;;9.20;;
52608;SDS011;38503;48.544;12.142;2022-12-07T00:36:28;9.70;;;8.10;;
52608;SDS011;38503;48.544;12.142;2022-12-07T00:38:54;9.47;;;8.00;;
52608;SDS011;38503;48.544;12.142;2022-12-07T00:41:25;8.77;;;7.40;;
52608;SDS011;38503;48.544;12.142;2022-12-07T00:43:53;9.70;;;8.17;;
52608;SDS011;38503;48.544;12.142;2022-12-07T00:46:20;9.57;;;8.57;;
52608;SDS011;38503;48.544;12.142;2022-12-07T00:48:48;9.27;;;7.47;;
52608;SDS011;38503;48.544;12.142;2022-12-07T00:51:17;9.97;;;8.33;;
52608;SDS011;38503;48.544;12.142;2022-12-07T00:53:45;9.30;;;7.87;;
52608;SDS011;38503;48.544;12.142;2022-12-07T00:56:13;9.80;;;8.30;;
52608;SDS011;38503;48.544;12.142;2022-12-07T00:58:42;10.03;;;8.07;;
52608;SDS011;38503;48.544;12.142;2022-12-07T01:01:10;10.40;;;9.00;;
52608;SDS011;38503;48.544;12.142;2022-12-07T01:03:37;10.07;;;8.67;;
52608;SDS011;38503;48.544;12.142;2022-12-07T01:06:05;11.07;;;9.17;;
52608;SDS011;38503;48.544;12.142;2022-12-07T01:08:32;10.43;;;8.93;;
52608;SDS011;38503;48.544;12.142;2022-12-07T01:11:00;10.53;;;8.63;;
52608;SDS011;38503;48.544;12.142;2022-12-07T01:13:31;12.60;;;9.73;;
52608;SDS011;38503;48.544;12.142;2022-12-07T01:16:00;12.37;;;9.50;;
52608;SDS011;38503;48.544;12.142;2022-12-07T01:18:31;12.00;;;9.53;;
52608;SDS011;38503;48.544;12.142;2022-12-07T01:21:10;11.10;;;9.80;;
52608;SDS011;38503;48.544;12.142;2022-12-07T01:23:38;11.67;;;9.47;;
52608;SDS011;38503;48.544;12.142;2022-12-07T01:26:07;12.47;;;9.20;;
52608;SDS011;38503;48.544;12.142;2022-12-07T01:28:37;12.30;;;9.40;;
52608;SDS011;38503;48.544;12.142;2022-12-07T01:31:06;12.10;;;9.87;;
52608;SDS011;38503;48.544;12.142;2022-12-07T01:33:38;11.13;;;9.07;;
52608;SDS011;38503;48.544;12.142;2022-12-07T01:36:13;11.43;;;9.23;;
52608;SDS011;38503;48.544;12.142;2022-12-07T01:38:44;10.97;;;9.07;;
52608;SDS011;38503;48.544;12.142;2022-12-07T01:41:12;11.57;;;9.03;;
52608;SDS011;38503;48.544;12.142;2022-12-07T01:46:57;13.57;;;10.33;;
52608;SDS011;38503;48.544;12.142;2022-12-07T01:49:42;13.53;;;10.87;;
52608;SDS011;38503;48.544;12.142;2022-12-07T01:54:42;12.27;;;10.20;;
52608;SDS011;38503;48.544;12.142;2022-12-07T01:57:10;30.10;;;14.73;;
52608;SDS011;38503;48.544;12.142;2022-12-07T01:59:40;16.30;;;11.67;;
52608;SDS011;38503;48.544;12.142;2022-12-07T02:02:10;13.13;;;10.07;;
52608;SDS011;38503;48.544;12.142;2022-12-07T02:04:44;13.20;;;10.33;;
52608;SDS011;38503;48.544;12.142;2022-12-07T02:07:12;14.13;;;11.00;;
52608;SDS011;38503;48.544;12.142;2022-12-07T02:09:39;15.27;;;12.00;;
52608;SDS011;38503;48.544;12.142;2022-12-07T02:12:06;13.90;;;11.37;;
52608;SDS011;38503;48.544;12.142;2022-12-07T02:14:33;15.27;;;12.27;;
52608;SDS011;38503;48.544;12.142;2022-12-07T02:35:26;13.30;;;10.07;;
52608;SDS011;38503;48.544;12.142;2022-12-07T02:38:02;12.57;;;10.47;;
52608;SDS011;38503;48.544;12.142;2022-12-07T02:40:34;16.67;;;11.33;;
52608;SDS011;38503;48.544;12.142;2022-12-07T02:43:17;12.70;;;10.67;;
52608;SDS011;38503;48.544;12.142;2022-12-07T02:45:49;11.37;;;9.50;;
52608;SDS011;38503;48.544;12.142;2022-12-07T02:48:19;12.13;;;8.93;;
52608;SDS011;38503;48.544;12.142;2022-12-07T02:50:48;12.13;;;9.60;;
52608;SDS011;38503;48.544;12.142;2022-12-07T02:55:56;14.90;;;11.30;;
52608;SDS011;38503;48.544;12.142;2022-12-07T03:01:35;18.13;;;11.30;;
52608;SDS011;38503;48.544;12.142;2022-12-07T03:06:42;14.77;;;11.50;;
52608;SDS011;38503;48.544;12.142;2022-12-07T03:12:09;13.30;;;10.37;;
52608;SDS011;38503;48.544;12.142;2022-12-07T03:14:45;13.00;;;10.30;;
52608;SDS011;38503;48.544;12.142;2022-12-07T03:17:25;13.87;;;10.83;;
52608;SDS011;38503;48.544;12.142;2022-12-07T03:19:57;11.60;;;10.10;;
52608;SDS011;38503;48.544;12.142;2022-12-07T03:22:29;14.47;;;10.67;;
52608;SDS011;38503;48.544;12.142;2022-12-07T03:25:01;13.40;;;10.60;;
52608;SDS011;38503;48.544;12.142;2022-12-07T03:27:32;13.30;;;9.80;;
52608;SDS011;38503;48.544;12.142;2022-12-07T03:32:40;14.23;;;11.17;;
52608;SDS011;38503;48.544;12.142;2022-12-07T03:35:23;13.03;;;9.77;;
52608;SDS011;38503;48.544;12.142;2022-12-07T03:43:28;12.13;;;9.83;;
52608;SDS011;38503;48.544;12.142;2022-12-07T03:46:01;15.00;;;11.23;;
52608;SDS011;38503;48.544;12.142;2022-12-07T03:48:54;14.00;;;10.73;;
52608;SDS011;38503;48.544;12.142;2022-12-07T03:54:10;14.50;;;10.93;;
52608;SDS011;38503;48.544;12.142;2022-12-07T03:56:40;12.63;;;10.37;;
52608;SDS011;38503;48.544;12.142;2022-12-07T03:59:08;12.67;;;10.50;;
52608;SDS011;38503;48.544;12.142;2022-12-07T04:01:36;13.23;;;10.60;;
52608;SDS011;38503;48.544;12.142;2022-12-07T04:04:03;12.93;;;9.90;;
52608;SDS011;38503;48.544;12.142;2022-12-07T04:06:30;13.67;;;10.57;;
52608;SDS011;38503;48.544;12.142;2022-12-07T04:08:56;16.83;;;12.07;;
52608;SDS011;38503;48.544;12.142;2022-12-07T04:11:23;15.20;;;11.77;;
52608;SDS011;38503;48.544;12.142;2022-12-07T04:13:50;14.43;;;11.60;;
52608;SDS011;38503;48.544;12.142;2022-12-07T04:16:35;17.67;;;12.30;;
52608;SDS011;38503;48.544;12.142;2022-12-07T04:19:09;14.83;;;12.13;;
52608;SDS011;38503;48.544;12.142;2022-12-07T04:21:36;14.47;;;11.77;;
52608;SDS011;38503;48.544;12.142;2022-12-07T04:24:03;14.53;;;11.20;;
52608;SDS011;38503;48.544;12.142;2022-12-07T04:26:30;14.33;;;11.77;;
52608;SDS011;38503;48.544;12.142;2022-12-07T04:28:57;15.27;;;11.37;;
52608;SDS011;38503;48.544;12.142;2022-12-07T04:31:31;16.70;;;11.67;;
52608;SDS011;38503;48.544;12.142;2022-12-07T04:34:01;15.33;;;11.63;;
52608;SDS011;38503;48.544;12.142;2022-12-07T04:36:28;15.13;;;11.73;;
52608;SDS011;38503;48.544;12.142;2022-12-07T04:38:56;16.73;;;12.17;;
52608;SDS011;38503;48.544;12.142;2022-12-07T04:41:23;16.63;;;12.83;;
52608;SDS011;38503;48.544;12.142;2022-12-07T04:46:22;16.10;;;12.57;;
52608;SDS011;38503;48.544;12.142;2022-12-07T04:48:50;16.70;;;12.80;;
52608;SDS011;38503;48.544;12.142;2022-12-07T04:51:19;18.67;;;11.80;;
52608;SDS011;38503;48.544;12.142;2022-12-07T04:53:48;18.20;;;12.53;;
52608;SDS011;38503;48.544;12.142;2022-12-07T04:56:15;15.57;;;12.50;;
52608;SDS011;38503;48.544;12.142;2022-12-07T04:58:43;17.00;;;12.57;;
52608;SDS011;38503;48.544;12.142;2022-12-07T05:01:11;16.80;;;12.83;;
52608;SDS011;38503;48.544;12.142;2022-12-07T05:03:39;17.07;;;12.63;;
52608;SDS011;38503;48.544;12.142;2022-12-07T05:06:06;18.30;;;13.47;;
52608;SDS011;38503;48.544;12.142;2022-12-07T05:08:38;19.67;;;13.27;;
52608;SDS011;38503;48.544;12.142;2022-12-07T05:11:06;16.27;;;12.40;;
52608;SDS011;38503;48.544;12.142;2022-12-07T05:13:34;19.90;;;13.17;;
52608;SDS011;38503;48.544;12.142;2022-12-07T05:16:02;15.27;;;12.47;;
52608;SDS011;38503;48.544;12.142;2022-12-07T05:18:29;17.40;;;13.03;;
52608;SDS011;38503;48.544;12.142;2022-12-07T05:20:56;18.97;;;13.80;;
52608;SDS011;38503;48.544;12.142;2022-12-07T05:23:22;19.47;;;14.03;;
52608;SDS011;38503;48.544;12.142;2022-12-07T05:25:49;17.43;;;12.60;;
52608;SDS011;38503;48.544;12.142;2022-12-07T05:28:16;20.33;;;14.20;;
52608;SDS011;38503;48.544;12.142;2022-12-07T05:30:43;18.83;;;13.70;;
52608;SDS011;38503;48.544;12.142;2022-12-07T05:33:10;16.57;;;12.47;;
52608;SDS011;38503;48.544;12.142;2022-12-07T05:35:37;18.93;;;14.40;;
52608;SDS011;38503;48.544;12.142;2022-12-07T05:38:05;18.73;;;14.00;;
52608;SDS011;38503;48.544;12.142;2022-12-07T05:40:31;19.00;;;13.90;;
52608;SDS011;38503;48.544;12.142;2022-12-07T05:42:58;18.90;;;13.87;;
52608;SDS011;38503;48.544;12.142;2022-12-07T05:45:30;20.53;;;15.27;;
52608;SDS011;38503;48.544;12.142;2022-12-07T05:47:57;20.57;;;14.47;;
52608;SDS011;38503;48.544;12.142;2022-12-07T05:50:24;19.80;;;14.40;;
52608;SDS011;38503;48.544;12.142;2022-12-07T05:52:51;19.83;;;13.93;;
52608;SDS011;38503;48.544;12.142;2022-12-07T05:55:18;19.77;;;14.93;;
52608;SDS011;38503;48.544;12.142;2022-12-07T05:57:45;18.33;;;14.63;;
52608;SDS011;38503;48.544;12.142;2022-12-07T06:00:32;20.20;;;14.50;;
52608;SDS011;38503;48.544;12.142;2022-12-07T06:02:59;21.70;;;14.13;;
52608;SDS011;38503;48.544;12.142;2022-12-07T06:05:26;19.80;;;14.63;;
52608;SDS011;38503;48.544;12.142;2022-12-07T06:07:53;20.67;;;15.23;;
52608;SDS011;38503;48.544;12.142;2022-12-07T06:10:20;22.83;;;14.43;;
52608;SDS011;38503;48.544;12.142;2022-12-07T06:12:46;21.33;;;14.07;;
52608;SDS011;38503;48.544;12.142;2022-12-07T06:15:13;20.17;;;14.10;;
52608;SDS011;38503;48.544;12.142;2022-12-07T06:17:40;18.90;;;14.53;;
52608;SDS011;38503;48.544;12.142;2022-12-07T06:20:07;19.73;;;14.83;;
52608;SDS011;38503;48.544;12.142;2022-12-07T06:22:34;20.50;;;15.07;;
52608;SDS011;38503;48.544;12.142;2022-12-07T06:25:01;20.53;;;15.60;;
52608;SDS011;38503;48.544;12.142;2022-12-07T06:27:34;21.83;;;15.17;;
52608;SDS011;38503;48.544;12.142;2022-12-07T06:30:01;22.53;;;16.43;;
52608;SDS011;38503;48.544;12.142;2022-12-07T06:32:33;23.97;;;16.67;;
52608;SDS011;38503;48.544;12.142;2022-12-07T06:35:00;24.80;;;16.40;;
52608;SDS011;38503;48.544;12.142;2022-12-07T06:37:27;23.40;;;17.20;;
52608;SDS011;38503;48.544;12.142;2022-12-07T06:39:54;23.47;;;16.50;;
52608;SDS011;38503;48.544;12.142;2022-12-07T06:42:21;22.80;;;16.50;;
52608;SDS011;38503;48.544;12.142;2022-12-07T06:44:48;22.63;;;16.67;;
52608;SDS011;38503;48.544;12.142;2022-12-07T06:47:15;22.50;;;15.80;;
52608;SDS011;38503;48.544;12.142;2022-12-07T06:50:02;22.37;;;15.80;;
52608;SDS011;38503;48.544;12.142;2022-12-07T06:52:30;25.33;;;17.50;;
52608;SDS011;38503;48.544;12.142;2022-12-07T06:54:57;28.00;;;17.60;;
52608;SDS011;38503;48.544;12.142;2022-12-07T06:57:25;27.50;;;17.27;;
52608;SDS011;38503;48.544;12.142;2022-12-07T06:59:52;24.37;;;16.10;;
52608;SDS011;38503;48.544;12.142;2022-12-07T07:02:19;24.93;;;17.50;;
52608;SDS011;38503;48.544;12.142;2022-12-07T07:04:46;24.23;;;17.07;;
52608;SDS011;38503;48.544;12.142;2022-12-07T07:07:13;24.50;;;16.90;;
52608;SDS011;38503;48.544;12.142;2022-12-07T07:09:40;26.67;;;17.33;;
52608;SDS011;38503;48.544;12.142;2022-12-07T07:12:07;25.03;;;17.23;;
52608;SDS011;38503;48.544;12.142;2022-12-07T07:14:34;22.27;;;16.40;;
52608;SDS011;38503;48.544;12.142;2022-12-07T07:17:01;26.57;;;17.40;;
52608;SDS011;38503;48.544;12.142;2022-12-07T07:19:28;26.27;;;17.93;;
52608;SDS011;38503;48.544;12.142;2022-12-07T07:21:55;28.77;;;18.90;;
52608;SDS011;38503;48.544;12.142;2022-12-07T07:24:21;30.33;;;19.93;;
52608;SDS011;38503;48.544;12.142;2022-12-07T07:26:48;28.07;;;19.20;;
52608;SDS011;38503;48.544;12.142;2022-12-07T07:29:15;27.33;;;18.53;;
52608;SDS011;38503;48.544;12.142;2022-12-07T07:31:42;24.40;;;18.47;;
52608;SDS011;38503;48.544;12.142;2022-12-07T07:34:09;28.10;;;18.50;;
52608;SDS011;38503;48.544;12.142;2022-12-07T07:36:36;24.43;;;16.87;;
52608;SDS011;38503;48.544;12.142;2022-12-07T07:39:03;23.40;;;16.23;;
52608;SDS011;38503;48.544;12.142;2022-12-07T07:41:30;20.83;;;15.47;;
52608;SDS011;38503;48.544;12.142;2022-12-07T07:43:57;22.37;;;15.50;;
52608;SDS011;38503;48.544;12.142;2022-12-07T07:46:24;23.00;;;15.60;;
52608;SDS011;38503;48.544;12.142;2022-12-07T07:48:51;22.70;;;15.27;;
52608;SDS011;38503;48.544;12.142;2022-12-07T07:51:17;17.03;;;13.13;;
52608;SDS011;38503;48.544;12.142;2022-12-07T07:53:44;17.63;;;13.50;;
52608;SDS011;38503;48.544;12.142;2022-12-07T07:56:12;19.60;;;12.87;;
52608;SDS011;38503;48.544;12.142;2022-12-07T07:58:39;17.37;;;12.83;;
52608;SDS011;38503;48.544;12.142;2022-12-07T08:01:06;15.00;;;11.83;;
52608;SDS011;38503;48.544;12.142;2022-12-07T08:03:33;16.13;;;11.73;;
52608;SDS011;38503;48.544;12.142;2022-12-07T08:06:01;16.00;;;12.20;;
52608;SDS011;38503;48.544;12.142;2022-12-07T08:08:29;15.60;;;12.47;;
52608;SDS011;38503;48.544;12.142;2022-12-07T08:10:56;16.80;;;12.30;;
52608;SDS011;38503;48.544;12.142;2022-12-07T08:13:26;17.93;;;11.93;;
52608;SDS011;38503;48.544;12.142;2022-12-07T08:15:56;17.63;;;12.60;;
52608;SDS011;38503;48.544;12.142;2022-12-07T08:18:24;16.73;;;12.00;;
52608;SDS011;38503;48.544;12.142;2022-12-07T08:20:51;17.37;;;12.57;;
52608;SDS011;38503;48.544;12.142;2022-12-07T08:23:18;17.37;;;12.83;;
52608;SDS011;38503;48.544;12.142;2022-12-07T08:25:44;16.30;;;12.80;;
52608;SDS011;38503;48.544;12.142;2022-12-07T08:28:11;18.23;;;13.17;;
52608;SDS011;38503;48.544;12.142;2022-12-07T08:30:38;17.17;;;13.33;;
52608;SDS011;38503;48.544;12.142;2022-12-07T08:33:05;16.77;;;11.80;;
52608;SDS011;38503;48.544;12.142;2022-12-07T08:35:33;16.47;;;12.73;;
52608;SDS011;38503;48.544;12.142;2022-12-07T08:38:00;13.23;;;11.37;;
52608;SDS011;38503;48.544;12.142;2022-12-07T08:40:28;15.83;;;11.70;;
52608;SDS011;38503;48.544;12.142;2022-12-07T08:42:55;13.93;;;11.17;;
52608;SDS011;38503;48.544;12.142;2022-12-07T08:45:22;12.20;;;10.43;;
52608;SDS011;38503;48.544;12.142;2022-12-07T08:48:11;12.97;;;10.50;;
52608;SDS011;38503;48.544;12.142;2022-12-07T08:50:40;13.23;;;11.27;;
52608;SDS011;38503;48.544;12.142;2022-12-07T08:53:14;13.30;;;10.87;;
52608;SDS011;38503;48.544;12.142;2022-12-07T08:55:42;13.53;;;11.43;;
52608;SDS011;38503;48.544;12.142;2022-12-07T08:58:12;13.83;;;11.17;;
52608;SDS011;38503;48.544;12.142;2022-12-07T09:00:40;14.47;;;11.17;;
52608;SDS011;38503;48.544;12.142;2022-12-07T09:03:07;14.90;;;11.47;;
52608;SDS011;38503;48.544;12.142;2022-12-07T09:05:34;15.27;;;12.23;;
52608;SDS011;38503;48.544;12.142;2022-12-07T09:08:01;15.33;;;12.23;;
52608;SDS011;38503;48.544;12.142;2022-12-07T09:10:28;15.23;;;11.97;;
52608;SDS011;38503;48.544;12.142;2022-12-07T09:12:55;12.67;;;10.93;;
52608;SDS011;38503;48.544;12.142;2022-12-07T09:15:30;14.63;;;12.00;;
52608;SDS011;38503;48.544;12.142;2022-12-07T09:17:57;13.63;;;11.73;;
52608;SDS011;38503;48.544;12.142;2022-12-07T09:20:24;13.07;;;11.43;;
52608;SDS011;38503;48.544;12.142;2022-12-07T09:22:53;12.93;;;10.70;;
52608;SDS011;38503;48.544;12.142;2022-12-07T09:25:20;14.37;;;11.63;;
52608;SDS011;38503;48.544;12.142;2022-12-07T09:27:47;12.57;;;10.03;;
52608;SDS011;38503;48.544;12.142;2022-12-07T09:30:14;11.67;;;10.47;;
52608;SDS011;38503;48.544;12.142;2022-12-07T09:32:41;11.50;;;10.00;;
52608;SDS011;38503;48.544;12.142;2022-12-07T09:35:08;11.83;;;10.33;;
52608;SDS011;38503;48.544;12.142;2022-12-07T09:37:36;14.63;;;11.70;;
52608;SDS011;38503;48.544;12.142;2022-12-07T09:40:03;11.53;;;10.33;;
52608;SDS011;38503;48.544;12.142;2022-12-07T09:42:38;12.60;;;10.73;;
52608;SDS011;38503;48.544;12.142;2022-12-07T09:45:10;13.00;;;10.37;;
52608;SDS011;38503;48.544;12.142;2022-12-07T09:47:40;12.30;;;10.80;;
52608;SDS011;38503;48.544;12.142;2022-12-07T09:50:12;13.23;;;11.13;;
52608;SDS011;38503;48.544;12.142;2022-12-07T09:52:45;13.50;;;10.70;;
52608;SDS011;38503;48.544;12.142;2022-12-07T09:55:15;11.87;;;10.67;;
52608;SDS011;38503;48.544;12.142;2022-12-07T09:57:47;12.70;;;10.83;;
52608;SDS011;38503;48.544;12.142;2022-12-07T10:00:15;12.43;;;10.70;;
52608;SDS011;38503;48.544;12.142;2022-12-07T10:02:55;13.13;;;10.97;;
52608;SDS011;38503;48.544;12.142;2022-12-07T10:05:28;15.37;;;11.60;;
52608;SDS011;38503;48.544;12.142;2022-12-07T10:07:59;13.97;;;11.07;;
52608;SDS011;38503;48.544;12.142;2022-12-07T10:10:29;13.90;;;11.83;;
52608;SDS011;38503;48.544;12.142;2022-12-07T10:18:20;18.90;;;11.73;;
52608;SDS011;38503;48.544;12.142;2022-12-07T10:24:02;11.83;;;9.47;;
52608;SDS011;38503;48.544;12.142;2022-12-07T10:26:51;13.37;;;10.90;;
52608;SDS011;38503;48.544;12.142;2022-12-07T10:32:00;13.17;;;10.00;;
52608;SDS011;38503;48.544;12.142;2022-12-07T10:34:29;12.57;;;10.60;;
52608;SDS011;38503;48.544;12.142;2022-12-07T11:01:25;10.90;;;9.17;;
52608;SDS011;38503;48.544;12.142;2022-12-07T11:04:33;9.83;;;8.80;;
52608;SDS011;38503;48.544;12.142;2022-12-07T11:12:39;11.00;;;8.87;;
52608;SDS011;38503;48.544;12.142;2022-12-07T11:17:52;11.93;;;9.47;;
52608;SDS011;38503;48.544;12.142;2022-12-07T11:20:43;13.33;;;9.63;;
52608;SDS011;38503;48.544;12.142;2022-12-07T11:26:41;11.23;;;9.00;;
52608;SDS011;38503;48.544;12.142;2022-12-07T11:29:43;12.17;;;9.60;;
52608;SDS011;38503;48.544;12.142;2022-12-07T11:32:23;12.13;;;9.90;;
52608;SDS011;38503;48.544;12.142;2022-12-07T11:35:03;10.63;;;8.77;;
52608;SDS011;38503;48.544;12.142;2022-12-07T11:37:37;14.77;;;9.77;;
52608;SDS011;38503;48.544;12.142;2022-12-07T11:40:20;12.77;;;9.07;;
52608;SDS011;38503;48.544;12.142;2022-12-07T11:42:59;12.27;;;9.80;;
52608;SDS011;38503;48.544;12.142;2022-12-07T11:45:41;11.57;;;9.27;;
52608;SDS011;38503;48.544;12.142;2022-12-07T11:50:41;11.13;;;9.17;;
52608;SDS011;38503;48.544;12.142;2022-12-07T11:53:16;12.60;;;9.40;;
52608;SDS011;38503;48.544;12.142;2022-12-07T11:55:50;13.67;;;9.27;;
52608;SDS011;38503;48.544;12.142;2022-12-07T12:06:43;9.37;;;6.93;;
52608;SDS011;38503;48.544;12.142;2022-12-07T12:09:12;10.07;;;7.03;;
52608;SDS011;38503;48.544;12.142;2022-12-07T12:23:01;10.13;;;6.37;;
52608;SDS011;38503;48.544;12.142;2022-12-07T12:25:38;9.10;;;6.80;;
52608;SDS011;38503;48.544;12.142;2022-12-07T12:28:27;11.23;;;5.80;;
52608;SDS011;38503;48.544;12.142;2022-12-07T12:31:07;7.60;;;5.93;;
52608;SDS011;38503;48.544;12.142;2022-12-07T12:33:35;8.33;;;6.10;;
52608;SDS011;38503;48.544;12.142;2022-12-07T12:36:47;8.10;;;6.83;;
52608;SDS011;38503;48.544;12.142;2022-12-07T12:51:51;11.37;;;7.10;;
52608;SDS011;38503;48.544;12.142;2022-12-07T12:54:38;10.27;;;6.63;;
52608;SDS011;38503;48.544;12.142;2022-12-07T12:59:35;15.70;;;7.60;;
52608;SDS011;38503;48.544;12.142;2022-12-07T13:02:14;8.37;;;6.93;;
52608;SDS011;38503;48.544;12.142;2022-12-07T13:05:01;7.60;;;6.07;;
52608;SDS011;38503;48.544;12.142;2022-12-07T13:10:29;7.60;;;6.07;;
52608;SDS011;38503;48.544;12.142;2022-12-07T13:15:49;10.17;;;7.17;;
52608;SDS011;38503;48.544;12.142;2022-12-07T13:20:57;9.40;;;6.90;;
52608;SDS011;38503;48.544;12.142;2022-12-07T13:29:12;10.13;;;6.93;;
52608;SDS011;38503;48.544;12.142;2022-12-07T13:31:45;9.33;;;6.83;;
52608;SDS011;38503;48.544;12.142;2022-12-07T13:37:04;13.47;;;6.53;;
52608;SDS011;38503;48.544;12.142;2022-12-07T13:39:47;11.27;;;8.00;;
52608;SDS011;38503;48.544;12.142;2022-12-07T13:42:33;11.27;;;7.30;;
52608;SDS011;38503;48.544;12.142;2022-12-07T13:45:17;11.87;;;7.23;;
52608;SDS011;38503;48.544;12.142;2022-12-07T13:48:53;8.57;;;6.43;;
52608;SDS011;38503;48.544;12.142;2022-12-07T13:51:16;8.27;;;6.43;;
52608;SDS011;38503;48.544;12.142;2022-12-07T13:53:54;8.53;;;6.60;;
52608;SDS011;38503;48.544;12.142;2022-12-07T13:56:32;10.00;;;6.87;;
52608;SDS011;38503;48.544;12.142;2022-12-07T13:59:00;9.57;;;6.90;;
52608;SDS011;38503;48.544;12.142;2022-12-07T14:01:30;9.87;;;7.10;;
52608;SDS011;38503;48.544;12.142;2022-12-07T14:06:47;9.83;;;7.07;;
52608;SDS011;38503;48.544;12.142;2022-12-07T14:09:20;11.33;;;7.30;;
52608;SDS011;38503;48.544;12.142;2022-12-07T14:11:49;11.30;;;7.50;;
52608;SDS011;38503;48.544;12.142;2022-12-07T14:14:19;10.23;;;7.57;;
52608;SDS011;38503;48.544;12.142;2022-12-07T14:16:59;10.93;;;6.93;;
52608;SDS011;38503;48.544;12.142;2022-12-07T14:19:43;11.17;;;7.80;;
52608;SDS011;38503;48.544;12.142;2022-12-07T14:22:33;12.20;;;8.20;;
52608;SDS011;38503;48.544;12.142;2022-12-07T14:25:13;10.37;;;7.10;;
52608;SDS011;38503;48.544;12.142;2022-12-07T14:27:57;10.70;;;7.70;;
52608;SDS011;38503;48.544;12.142;2022-12-07T14:30:30;11.60;;;8.17;;
52608;SDS011;38503;48.544;12.142;2022-12-07T14:32:59;12.63;;;8.77;;
52608;SDS011;38503;48.544;12.142;2022-12-07T14:35:29;10.83;;;7.97;;
52608;SDS011;38503;48.544;12.142;2022-12-07T14:37:57;11.00;;;7.20;;
52608;SDS011;38503;48.544;12.142;2022-12-07T14:40:25;11.13;;;8.03;;
52608;SDS011;38503;48.544;12.142;2022-12-07T14:42:56;13.10;;;7.90;;
52608;SDS011;38503;48.544;12.142;2022-12-07T14:45:27;16.63;;;8.37;;
52608;SDS011;38503;48.544;12.142;2022-12-07T14:47:54;12.93;;;8.20;;
52608;SDS011;38503;48.544;12.142;2022-12-07T14:50:45;9.63;;;7.20;;
52608;SDS011;38503;48.544;12.142;2022-12-07T14:53:39;11.57;;;7.87;;
52608;SDS011;38503;48.544;12.142;2022-12-07T14:56:19;12.70;;;8.20;;
52608;SDS011;38503;48.544;12.142;2022-12-07T14:58:46;11.53;;;7.80;;
52608;SDS011;38503;48.544;12.142;2022-12-07T15:01:14;14.87;;;7.63;;
52608;SDS011;38503;48.544;12.142;2022-12-07T15:03:41;12.47;;;8.60;;
52608;SDS011;38503;48.544;12.142;2022-12-07T15:06:10;10.57;;;7.80;;
52608;SDS011;38503;48.544;12.142;2022-12-07T15:08:40;12.10;;;8.03;;
52608;SDS011;38503;48.544;12.142;2022-12-07T15:11:10;12.17;;;7.73;;
52608;SDS011;38503;48.544;12.142;2022-12-07T15:13:39;12.93;;;8.20;;
52608;SDS011;38503;48.544;12.142;2022-12-07T15:16:25;11.37;;;7.80;;
52608;SDS011;38503;48.544;12.142;2022-12-07T15:19:15;11.00;;;8.17;;
52608;SDS011;38503;48.544;12.142;2022-12-07T15:21:54;10.97;;;8.00;;
52608;SDS011;38503;48.544;12.142;2022-12-07T15:24:21;12.97;;;8.87;;
52608;SDS011;38503;48.544;12.142;2022-12-07T15:26:50;12.63;;;7.93;;
52608;SDS011;38503;48.544;12.142;2022-12-07T15:29:17;12.80;;;8.73;;
52608;SDS011;38503;48.544;12.142;2022-12-07T15:31:50;14.93;;;8.50;;
52608;SDS011;38503;48.544;12.142;2022-12-07T15:34:24;10.13;;;7.73;;
52608;SDS011;38503;48.544;12.142;2022-12-07T15:36:52;12.17;;;8.47;;
52608;SDS011;38503;48.544;12.142;2022-12-07T15:39:19;11.77;;;9.07;;
52608;SDS011;38503;48.544;12.142;2022-12-07T15:41:47;14.67;;;9.33;;
52608;SDS011;38503;48.544;12.142;2022-12-07T15:44:14;11.63;;;8.30;;
52608;SDS011;38503;48.544;12.142;2022-12-07T15:46:59;14.13;;;9.00;;
52608;SDS011;38503;48.544;12.142;2022-12-07T15:49:27;13.50;;;8.80;;
52608;SDS011;38503;48.544;12.142;2022-12-07T15:51:53;12.63;;;8.77;;
52608;SDS011;38503;48.544;12.142;2022-12-07T15:54:21;15.67;;;9.87;;
52608;SDS011;38503;48.544;12.142;2022-12-07T15:56:53;13.20;;;8.90;;
52608;SDS011;38503;48.544;12.142;2022-12-07T15:59:21;14.30;;;9.43;;
52608;SDS011;38503;48.544;12.142;2022-12-07T16:01:49;13.27;;;8.97;;
52608;SDS011;38503;48.544;12.142;2022-12-07T16:04:16;14.60;;;9.33;;
52608;SDS011;38503;48.544;12.142;2022-12-07T16:06:42;15.33;;;10.83;;
52608;SDS011;38503;48.544;12.142;2022-12-07T16:09:10;16.23;;;9.67;;
52608;SDS011;38503;48.544;12.142;2022-12-07T16:11:37;15.20;;;9.77;;
52608;SDS011;38503;48.544;12.142;2022-12-07T16:14:04;14.00;;;10.47;;
52608;SDS011;38503;48.544;12.142;2022-12-07T16:16:31;17.60;;;10.13;;
52608;SDS011;38503;48.544;12.142;2022-12-07T16:18:58;14.77;;;9.77;;
52608;SDS011;38503;48.544;12.142;2022-12-07T16:21:25;15.47;;;10.33;;
52608;SDS011;38503;48.544;12.142;2022-12-07T16:23:52;12.80;;;9.83;;
52608;SDS011;38503;48.544;12.142;2022-12-07T16:26:20;16.37;;;10.33;;
52608;SDS011;38503;48.544;12.142;2022-12-07T16:28:48;15.50;;;11.20;;
52608;SDS011;38503;48.544;12.142;2022-12-07T16:31:18;15.60;;;10.90;;
52608;SDS011;38503;48.544;12.142;2022-12-07T16:33:47;15.77;;;10.27;;
52608;SDS011;38503;48.544;12.142;2022-12-07T16:36:15;17.00;;;10.23;;
52608;SDS011;38503;48.544;12.142;2022-12-07T16:39:03;13.40;;;9.03;;
52608;SDS011;38503;48.544;12.142;2022-12-07T16:41:30;14.50;;;9.30;;
52608;SDS011;38503;48.544;12.142;2022-12-07T16:44:02;14.70;;;9.80;;
52608;SDS011;38503;48.544;12.142;2022-12-07T16:46:33;13.00;;;8.77;;
52608;SDS011;38503;48.544;12.142;2022-12-07T16:49:02;14.37;;;8.87;;
52608;SDS011;38503;48.544;12.142;2022-12-07T16:51:30;14.40;;;9.10;;
52608;SDS011;38503;48.544;12.142;2022-12-07T16:53:57;14.83;;;9.77;;
52608;SDS011;38503;48.544;12.142;2022-12-07T16:56:25;13.07;;;8.83;;
52608;SDS011;38503;48.544;12.142;2022-12-07T16:58:53;12.07;;;8.70;;
52608;SDS011;38503;48.544;12.142;2022-12-07T17:01:21;13.00;;;9.07;;
52608;SDS011;38503;48.544;12.142;2022-12-07T17:03:49;12.30;;;8.70;;
52608;SDS011;38503;48.544;12.142;2022-12-07T17:06:17;14.17;;;8.87;;
52608;SDS011;38503;48.544;12.142;2022-12-07T17:08:46;16.13;;;9.37;;
52608;SDS011;38503;48.544;12.142;2022-12-07T17:11:16;12.40;;;8.77;;